sensor_id;sensor_type;location;lat;lon;timestamp;temperature;humidity
66928;DHT22;59882;45.624;11.698;2023-02-17T00:01:16;4.60;76.70
66928;DHT22;59882;45.624;11.698;2023-02-17T00:03:43;4.60;76.50
66928;DHT22;59882;45.624;11.698;2023-02-17T00:06:13;4.60;76.60
66928;DHT22;59882;45.624;11.698;2023-02-17T00:08:39;4.50;77.00
66928;DHT22;59882;45.624;11.698;2023-02-17T00:11:04;4.60;76.50
66928;DHT22;59882;45.624;11.698;2023-02-17T00:13:30;4.60;76.80
66928;DHT22;59882;45.624;11.698;2023-02-17T00:15:56;4.50;76.50
66928;DHT22;59882;45.624;11.698;2023-02-17T00:18:22;4.50;76.50
66928;DHT22;59882;45.624;11.698;2023-02-17T00:20:48;4.50;76.70
66928;DHT22;59882;45.624;11.698;2023-02-17T00:23:14;4.50;76.80
66928;DHT22;59882;45.624;11.698;2023-02-17T00:25:40;4.50;76.60
66928;DHT22;59882;45.624;11.698;2023-02-17T00:28:05;4.50;76.80
66928;DHT22;59882;45.624;11.698;2023-02-17T00:30:31;4.50;76.10
66928;DHT22;59882;45.624;11.698;2023-02-17T00:32:57;4.50;75.80
66928;DHT22;59882;45.624;11.698;2023-02-17T00:35:23;4.60;76.40
66928;DHT22;59882;45.624;11.698;2023-02-17T00:37:48;4.50;76.00
66928;DHT22;59882;45.624;11.698;2023-02-17T00:40:14;4.60;76.20
66928;DHT22;59882;45.624;11.698;2023-02-17T00:42:40;4.60;76.20
66928;DHT22;59882;45.624;11.698;2023-02-17T00:45:06;4.50;75.90
66928;DHT22;59882;45.624;11.698;2023-02-17T00:47:32;4.50;75.90
66928;DHT22;59882;45.624;11.698;2023-02-17T00:49:58;4.50;76.00
66928;DHT22;59882;45.624;11.698;2023-02-17T00:52:25;4.50;76.30
66928;DHT22;59882;45.624;11.698;2023-02-17T00:54:50;4.50;76.10
66928;DHT22;59882;45.624;11.698;2023-02-17T00:57:16;4.50;75.90
66928;DHT22;59882;45.624;11.698;2023-02-17T00:59:41;4.50;75.80
66928;DHT22;59882;45.624;11.698;2023-02-17T01:02:07;4.50;75.70
66928;DHT22;59882;45.624;11.698;2023-02-17T01:04:33;4.50;75.60
66928;DHT22;59882;45.624;11.698;2023-02-17T01:06:58;4.50;75.60
66928;DHT22;59882;45.624;11.698;2023-02-17T01:09:24;4.50;75.70
66928;DHT22;59882;45.624;11.698;2023-02-17T01:11:50;4.50;75.30
66928;DHT22;59882;45.624;11.698;2023-02-17T01:14:15;4.50;75.70
66928;DHT22;59882;45.624;11.698;2023-02-17T01:16:45;4.50;75.60
66928;DHT22;59882;45.624;11.698;2023-02-17T01:19:14;4.50;75.30
66928;DHT22;59882;45.624;11.698;2023-02-17T01:21:40;4.50;75.40
66928;DHT22;59882;45.624;11.698;2023-02-17T01:24:07;4.50;75.10
66928;DHT22;59882;45.624;11.698;2023-02-17T01:26:34;4.40;75.30
66928;DHT22;59882;45.624;11.698;2023-02-17T01:29:02;4.40;75.40
66928;DHT22;59882;45.624;11.698;2023-02-17T01:31:28;4.40;75.50
66928;DHT22;59882;45.624;11.698;2023-02-17T01:33:56;4.30;75.80
66928;DHT22;59882;45.624;11.698;2023-02-17T01:36:22;4.30;76.00
66928;DHT22;59882;45.624;11.698;2023-02-17T01:38:48;4.30;76.10
66928;DHT22;59882;45.624;11.698;2023-02-17T01:41:15;4.20;76.10
66928;DHT22;59882;45.624;11.698;2023-02-17T01:43:41;4.20;76.10
66928;DHT22;59882;45.624;11.698;2023-02-17T01:46:07;4.20;76.00
66928;DHT22;59882;45.624;11.698;2023-02-17T01:48:40;4.10;75.80
66928;DHT22;59882;45.624;11.698;2023-02-17T01:51:15;4.10;75.70
66928;DHT22;59882;45.624;11.698;2023-02-17T01:53:48;4.10;75.50
66928;DHT22;59882;45.624;11.698;2023-02-17T01:56:16;4.10;75.80
66928;DHT22;59882;45.624;11.698;2023-02-17T01:58:46;4.10;75.70
66928;DHT22;59882;45.624;11.698;2023-02-17T02:01:13;4.10;75.90
66928;DHT22;59882;45.624;11.698;2023-02-17T02:03:39;4.10;75.90
66928;DHT22;59882;45.624;11.698;2023-02-17T02:06:12;4.00;75.80
66928;DHT22;59882;45.624;11.698;2023-02-17T02:09:03;4.00;75.80
66928;DHT22;59882;45.624;11.698;2023-02-17T02:11:29;4.10;75.70
66928;DHT22;59882;45.624;11.698;2023-02-17T02:13:56;4.10;75.80
66928;DHT22;59882;45.624;11.698;2023-02-17T02:16:24;4.10;75.70
66928;DHT22;59882;45.624;11.698;2023-02-17T02:22:13;4.00;76.40
66928;DHT22;59882;45.624;11.698;2023-02-17T02:32:42;3.80;76.50
66928;DHT22;59882;45.624;11.698;2023-02-17T02:40:44;3.90;76.90
66928;DHT22;59882;45.624;11.698;2023-02-17T02:43:11;3.90;76.70
66928;DHT22;59882;45.624;11.698;2023-02-17T02:45:37;4.00;76.80
66928;DHT22;59882;45.624;11.698;2023-02-17T02:48:03;4.10;77.10
66928;DHT22;59882;45.624;11.698;2023-02-17T02:53:44;4.10;77.20
66928;DHT22;59882;45.624;11.698;2023-02-17T03:01:59;4.20;77.50
66928;DHT22;59882;45.624;11.698;2023-02-17T03:04:56;4.20;77.60
66928;DHT22;59882;45.624;11.698;2023-02-17T03:07:29;4.20;76.90
66928;DHT22;59882;45.624;11.698;2023-02-17T03:09:57;4.30;76.50
66928;DHT22;59882;45.624;11.698;2023-02-17T03:12:25;4.30;76.50
66928;DHT22;59882;45.624;11.698;2023-02-17T03:14:57;4.30;77.10
66928;DHT22;59882;45.624;11.698;2023-02-17T03:17:24;4.30;76.80
66928;DHT22;59882;45.624;11.698;2023-02-17T03:19:50;4.20;76.70
66928;DHT22;59882;45.624;11.698;2023-02-17T03:22:20;4.10;76.80
66928;DHT22;59882;45.624;11.698;2023-02-17T03:24:46;4.10;76.30
66928;DHT22;59882;45.624;11.698;2023-02-17T03:27:12;4.10;76.90
66928;DHT22;59882;45.624;11.698;2023-02-17T03:29:38;4.10;77.00
66928;DHT22;59882;45.624;11.698;2023-02-17T03:32:04;4.10;77.10
66928;DHT22;59882;45.624;11.698;2023-02-17T03:34:30;4.10;76.80
66928;DHT22;59882;45.624;11.698;2023-02-17T03:36:56;4.10;77.00
66928;DHT22;59882;45.624;11.698;2023-02-17T03:39:21;4.10;76.60
66928;DHT22;59882;45.624;11.698;2023-02-17T03:41:47;4.10;76.00
66928;DHT22;59882;45.624;11.698;2023-02-17T03:44:16;4.10;75.90
66928;DHT22;59882;45.624;11.698;2023-02-17T03:46:42;4.10;76.20
66928;DHT22;59882;45.624;11.698;2023-02-17T03:49:08;4.00;75.90
66928;DHT22;59882;45.624;11.698;2023-02-17T03:51:34;4.00;75.80
66928;DHT22;59882;45.624;11.698;2023-02-17T03:53:59;4.00;75.70
66928;DHT22;59882;45.624;11.698;2023-02-17T03:56:25;4.10;75.80
66928;DHT22;59882;45.624;11.698;2023-02-17T03:58:51;4.00;76.10
66928;DHT22;59882;45.624;11.698;2023-02-17T04:01:17;3.90;76.50
66928;DHT22;59882;45.624;11.698;2023-02-17T04:03:42;3.80;76.70
66928;DHT22;59882;45.624;11.698;2023-02-17T04:06:09;3.80;76.60
66928;DHT22;59882;45.624;11.698;2023-02-17T04:08:35;3.80;77.40
66928;DHT22;59882;45.624;11.698;2023-02-17T04:11:02;3.70;77.70
66928;DHT22;59882;45.624;11.698;2023-02-17T04:13:28;3.60;77.90
66928;DHT22;59882;45.624;11.698;2023-02-17T04:15:54;3.60;77.70
66928;DHT22;59882;45.624;11.698;2023-02-17T04:18:21;3.60;77.90
66928;DHT22;59882;45.624;11.698;2023-02-17T04:20:48;3.50;78.00
66928;DHT22;59882;45.624;11.698;2023-02-17T04:23:14;3.50;77.90
66928;DHT22;59882;45.624;11.698;2023-02-17T04:25:41;3.50;78.20
66928;DHT22;59882;45.624;11.698;2023-02-17T04:28:06;3.50;78.10
66928;DHT22;59882;45.624;11.698;2023-02-17T04:30:32;3.50;78.20
66928;DHT22;59882;45.624;11.698;2023-02-17T04:32:58;3.50;77.90
66928;DHT22;59882;45.624;11.698;2023-02-17T04:35:24;3.50;77.60
66928;DHT22;59882;45.624;11.698;2023-02-17T04:37:50;3.50;77.90
66928;DHT22;59882;45.624;11.698;2023-02-17T04:40:15;3.40;77.80
66928;DHT22;59882;45.624;11.698;2023-02-17T04:42:41;3.40;77.80
66928;DHT22;59882;45.624;11.698;2023-02-17T04:45:07;3.40;77.60
66928;DHT22;59882;45.624;11.698;2023-02-17T04:47:33;3.40;77.60
66928;DHT22;59882;45.624;11.698;2023-02-17T04:49:59;3.30;78.60
66928;DHT22;59882;45.624;11.698;2023-02-17T04:52:25;3.30;78.60
66928;DHT22;59882;45.624;11.698;2023-02-17T04:54:50;3.30;78.40
66928;DHT22;59882;45.624;11.698;2023-02-17T04:57:16;3.20;79.10
66928;DHT22;59882;45.624;11.698;2023-02-17T04:59:42;3.10;79.70
66928;DHT22;59882;45.624;11.698;2023-02-17T05:02:08;3.10;79.10
66928;DHT22;59882;45.624;11.698;2023-02-17T05:04:33;3.20;79.20
66928;DHT22;59882;45.624;11.698;2023-02-17T05:06:59;3.20;79.20
66928;DHT22;59882;45.624;11.698;2023-02-17T05:09:25;3.20;79.30
66928;DHT22;59882;45.624;11.698;2023-02-17T05:11:51;3.20;79.40
66928;DHT22;59882;45.624;11.698;2023-02-17T05:14:16;3.20;79.10
66928;DHT22;59882;45.624;11.698;2023-02-17T05:16:42;3.30;78.90
66928;DHT22;59882;45.624;11.698;2023-02-17T05:19:08;3.30;78.90
66928;DHT22;59882;45.624;11.698;2023-02-17T05:21:33;3.30;78.70
66928;DHT22;59882;45.624;11.698;2023-02-17T05:23:59;3.30;78.60
66928;DHT22;59882;45.624;11.698;2023-02-17T05:26:25;3.40;78.50
66928;DHT22;59882;45.624;11.698;2023-02-17T05:28:51;3.40;78.20
66928;DHT22;59882;45.624;11.698;2023-02-17T05:31:16;3.50;78.30
66928;DHT22;59882;45.624;11.698;2023-02-17T05:33:42;3.40;78.40
66928;DHT22;59882;45.624;11.698;2023-02-17T05:36:08;3.40;78.30
66928;DHT22;59882;45.624;11.698;2023-02-17T05:38:35;3.50;78.10
66928;DHT22;59882;45.624;11.698;2023-02-17T05:41:01;3.50;77.80
66928;DHT22;59882;45.624;11.698;2023-02-17T05:43:27;3.50;77.60
66928;DHT22;59882;45.624;11.698;2023-02-17T05:45:53;3.50;77.50
66928;DHT22;59882;45.624;11.698;2023-02-17T05:48:18;3.40;77.50
66928;DHT22;59882;45.624;11.698;2023-02-17T05:50:44;3.40;77.60
66928;DHT22;59882;45.624;11.698;2023-02-17T05:53:09;3.50;77.40
66928;DHT22;59882;45.624;11.698;2023-02-17T05:55:35;3.50;77.30
66928;DHT22;59882;45.624;11.698;2023-02-17T05:58:01;3.50;77.30
66928;DHT22;59882;45.624;11.698;2023-02-17T06:00:27;3.40;77.20
66928;DHT22;59882;45.624;11.698;2023-02-17T06:02:53;3.40;77.20
66928;DHT22;59882;45.624;11.698;2023-02-17T06:05:19;3.40;77.00
66928;DHT22;59882;45.624;11.698;2023-02-17T06:07:44;3.40;77.30
66928;DHT22;59882;45.624;11.698;2023-02-17T06:10:10;3.30;77.40
66928;DHT22;59882;45.624;11.698;2023-02-17T06:12:36;3.30;77.20
66928;DHT22;59882;45.624;11.698;2023-02-17T06:15:02;3.30;77.40
66928;DHT22;59882;45.624;11.698;2023-02-17T06:17:28;3.30;77.40
66928;DHT22;59882;45.624;11.698;2023-02-17T06:19:53;3.30;77.40
66928;DHT22;59882;45.624;11.698;2023-02-17T06:22:19;3.30;77.30
66928;DHT22;59882;45.624;11.698;2023-02-17T06:24:44;3.20;77.30
66928;DHT22;59882;45.624;11.698;2023-02-17T06:27:10;3.30;77.10
66928;DHT22;59882;45.624;11.698;2023-02-17T06:29:36;3.30;77.70
66928;DHT22;59882;45.624;11.698;2023-02-17T06:32:01;3.20;77.60
66928;DHT22;59882;45.624;11.698;2023-02-17T06:34:27;3.20;77.70
66928;DHT22;59882;45.624;11.698;2023-02-17T06:36:53;3.20;77.80
66928;DHT22;59882;45.624;11.698;2023-02-17T06:39:19;3.20;78.10
66928;DHT22;59882;45.624;11.698;2023-02-17T06:41:44;3.20;78.20
66928;DHT22;59882;45.624;11.698;2023-02-17T06:44:10;3.20;78.20
66928;DHT22;59882;45.624;11.698;2023-02-17T06:46:36;3.20;77.90
66928;DHT22;59882;45.624;11.698;2023-02-17T06:49:01;3.30;78.10
66928;DHT22;59882;45.624;11.698;2023-02-17T06:51:28;3.20;78.30
66928;DHT22;59882;45.624;11.698;2023-02-17T06:53:54;3.30;78.20
66928;DHT22;59882;45.624;11.698;2023-02-17T06:56:20;3.30;78.10
66928;DHT22;59882;45.624;11.698;2023-02-17T06:58:45;3.30;77.80
66928;DHT22;59882;45.624;11.698;2023-02-17T07:01:19;3.30;78.00
66928;DHT22;59882;45.624;11.698;2023-02-17T07:03:45;3.30;78.10
66928;DHT22;59882;45.624;11.698;2023-02-17T07:06:11;3.40;78.20
66928;DHT22;59882;45.624;11.698;2023-02-17T07:08:37;3.40;78.30
66928;DHT22;59882;45.624;11.698;2023-02-17T07:11:07;3.40;78.20
66928;DHT22;59882;45.624;11.698;2023-02-17T07:13:33;3.40;78.50
66928;DHT22;59882;45.624;11.698;2023-02-17T07:15:59;3.50;78.60
66928;DHT22;59882;45.624;11.698;2023-02-17T07:18:25;3.50;78.20
66928;DHT22;59882;45.624;11.698;2023-02-17T07:20:51;3.50;78.20
66928;DHT22;59882;45.624;11.698;2023-02-17T07:23:17;3.60;78.20
66928;DHT22;59882;45.624;11.698;2023-02-17T07:25:42;3.60;78.40
66928;DHT22;59882;45.624;11.698;2023-02-17T07:28:08;3.60;78.60
66928;DHT22;59882;45.624;11.698;2023-02-17T07:30:38;3.60;78.60
66928;DHT22;59882;45.624;11.698;2023-02-17T07:33:04;3.60;78.60
66928;DHT22;59882;45.624;11.698;2023-02-17T07:35:29;3.60;78.60
66928;DHT22;59882;45.624;11.698;2023-02-17T07:37:59;3.60;78.60
66928;DHT22;59882;45.624;11.698;2023-02-17T07:40:25;3.70;78.60
66928;DHT22;59882;45.624;11.698;2023-02-17T07:42:52;3.70;78.30
66928;DHT22;59882;45.624;11.698;2023-02-17T07:45:17;3.80;78.40
66928;DHT22;59882;45.624;11.698;2023-02-17T07:47:44;3.80;78.60
66928;DHT22;59882;45.624;11.698;2023-02-17T07:50:10;3.90;78.40
66928;DHT22;59882;45.624;11.698;2023-02-17T07:52:35;3.90;78.50
66928;DHT22;59882;45.624;11.698;2023-02-17T07:55:02;4.00;78.50
66928;DHT22;59882;45.624;11.698;2023-02-17T07:57:28;4.10;78.80
66928;DHT22;59882;45.624;11.698;2023-02-17T07:59:54;4.10;78.90
66928;DHT22;59882;45.624;11.698;2023-02-17T08:02:19;4.20;78.70
66928;DHT22;59882;45.624;11.698;2023-02-17T08:04:45;4.30;78.60
66928;DHT22;59882;45.624;11.698;2023-02-17T08:07:10;4.30;78.70
66928;DHT22;59882;45.624;11.698;2023-02-17T08:09:36;4.40;78.50
66928;DHT22;59882;45.624;11.698;2023-02-17T08:12:20;4.40;78.60
66928;DHT22;59882;45.624;11.698;2023-02-17T08:15:07;4.50;78.60
66928;DHT22;59882;45.624;11.698;2023-02-17T08:17:33;4.60;78.60
66928;DHT22;59882;45.624;11.698;2023-02-17T08:19:59;4.70;78.50
66928;DHT22;59882;45.624;11.698;2023-02-17T08:22:24;4.80;78.50
66928;DHT22;59882;45.624;11.698;2023-02-17T08:24:50;4.80;78.20
66928;DHT22;59882;45.624;11.698;2023-02-17T08:27:17;4.90;78.30
66928;DHT22;59882;45.624;11.698;2023-02-17T08:29:43;5.10;78.70
66928;DHT22;59882;45.624;11.698;2023-02-17T08:32:09;5.20;79.30
66928;DHT22;59882;45.624;11.698;2023-02-17T08:34:35;5.30;79.60
66928;DHT22;59882;45.624;11.698;2023-02-17T08:37:04;5.40;78.90
66928;DHT22;59882;45.624;11.698;2023-02-17T08:39:30;5.60;79.80
66928;DHT22;59882;45.624;11.698;2023-02-17T08:41:56;5.80;79.50
66928;DHT22;59882;45.624;11.698;2023-02-17T08:44:22;5.90;79.80
66928;DHT22;59882;45.624;11.698;2023-02-17T08:46:49;6.00;79.60
66928;DHT22;59882;45.624;11.698;2023-02-17T08:49:21;6.20;79.10
66928;DHT22;59882;45.624;11.698;2023-02-17T08:51:48;6.30;79.10
66928;DHT22;59882;45.624;11.698;2023-02-17T08:54:14;6.40;78.90
66928;DHT22;59882;45.624;11.698;2023-02-17T08:56:40;6.60;78.90
66928;DHT22;59882;45.624;11.698;2023-02-17T08:59:07;6.70;78.50
66928;DHT22;59882;45.624;11.698;2023-02-17T09:01:34;6.80;78.10
66928;DHT22;59882;45.624;11.698;2023-02-17T09:04:01;7.00;77.80
66928;DHT22;59882;45.624;11.698;2023-02-17T09:06:49;7.20;78.00
66928;DHT22;59882;45.624;11.698;2023-02-17T09:09:18;7.30;77.80
66928;DHT22;59882;45.624;11.698;2023-02-17T09:11:44;7.50;77.00
66928;DHT22;59882;45.624;11.698;2023-02-17T09:14:11;7.60;76.90
66928;DHT22;59882;45.624;11.698;2023-02-17T09:16:37;7.70;76.40
66928;DHT22;59882;45.624;11.698;2023-02-17T09:19:03;7.80;76.00
66928;DHT22;59882;45.624;11.698;2023-02-17T09:21:29;7.90;75.80
66928;DHT22;59882;45.624;11.698;2023-02-17T09:23:54;8.00;76.00
66928;DHT22;59882;45.624;11.698;2023-02-17T09:26:21;8.10;75.40
66928;DHT22;59882;45.624;11.698;2023-02-17T09:28:46;8.20;75.10
66928;DHT22;59882;45.624;11.698;2023-02-17T09:31:18;8.30;74.80
66928;DHT22;59882;45.624;11.698;2023-02-17T09:33:45;8.40;74.90
66928;DHT22;59882;45.624;11.698;2023-02-17T09:36:14;8.50;74.80
66928;DHT22;59882;45.624;11.698;2023-02-17T09:38:40;8.50;74.30
66928;DHT22;59882;45.624;11.698;2023-02-17T09:43:59;8.70;74.10
66928;DHT22;59882;45.624;11.698;2023-02-17T09:46:29;8.80;74.70
66928;DHT22;59882;45.624;11.698;2023-02-17T09:48:59;8.90;74.20
66928;DHT22;59882;45.624;11.698;2023-02-17T09:54:09;9.00;74.10
66928;DHT22;59882;45.624;11.698;2023-02-17T09:56:39;9.10;74.30
66928;DHT22;59882;45.624;11.698;2023-02-17T09:59:13;9.20;74.50
66928;DHT22;59882;45.624;11.698;2023-02-17T10:01:40;9.20;74.00
66928;DHT22;59882;45.624;11.698;2023-02-17T10:04:29;9.30;73.80
66928;DHT22;59882;45.624;11.698;2023-02-17T10:07:12;9.40;73.60
66928;DHT22;59882;45.624;11.698;2023-02-17T10:12:22;9.50;73.30
66928;DHT22;59882;45.624;11.698;2023-02-17T10:15:02;9.60;73.30
66928;DHT22;59882;45.624;11.698;2023-02-17T10:17:39;9.70;73.10
66928;DHT22;59882;45.624;11.698;2023-02-17T10:20:11;9.80;72.90
66928;DHT22;59882;45.624;11.698;2023-02-17T10:22:42;9.90;73.10
66928;DHT22;59882;45.624;11.698;2023-02-17T10:25:17;9.90;73.20
66928;DHT22;59882;45.624;11.698;2023-02-17T10:27:55;10.10;72.90
66928;DHT22;59882;45.624;11.698;2023-02-17T10:33:22;10.30;72.60
66928;DHT22;59882;45.624;11.698;2023-02-17T10:40:53;10.50;72.30
66928;DHT22;59882;45.624;11.698;2023-02-17T10:43:25;10.60;72.20
66928;DHT22;59882;45.624;11.698;2023-02-17T10:45:54;10.70;71.50
66928;DHT22;59882;45.624;11.698;2023-02-17T10:48:23;10.70;71.50
66928;DHT22;59882;45.624;11.698;2023-02-17T10:50:50;10.80;71.70
66928;DHT22;59882;45.624;11.698;2023-02-17T10:53:24;10.80;71.70
66928;DHT22;59882;45.624;11.698;2023-02-17T10:59:32;11.00;71.40
66928;DHT22;59882;45.624;11.698;2023-02-17T11:01:38;11.10;71.10
66928;DHT22;59882;45.624;11.698;2023-02-17T11:04:04;11.20;71.60
66928;DHT22;59882;45.624;11.698;2023-02-17T11:06:31;11.30;71.40
66928;DHT22;59882;45.624;11.698;2023-02-17T11:09:20;11.40;71.20
66928;DHT22;59882;45.624;11.698;2023-02-17T11:12:19;11.50;70.00
66928;DHT22;59882;45.624;11.698;2023-02-17T11:14:48;11.50;69.50
66928;DHT22;59882;45.624;11.698;2023-02-17T11:17:27;11.60;69.70
66928;DHT22;59882;45.624;11.698;2023-02-17T11:19:59;11.70;70.00
66928;DHT22;59882;45.624;11.698;2023-02-17T11:22:42;11.70;70.40
66928;DHT22;59882;45.624;11.698;2023-02-17T11:25:25;11.90;70.00
66928;DHT22;59882;45.624;11.698;2023-02-17T11:27:52;11.90;69.60
66928;DHT22;59882;45.624;11.698;2023-02-17T11:30:18;12.10;68.90
66928;DHT22;59882;45.624;11.698;2023-02-17T11:32:45;12.20;68.50
66928;DHT22;59882;45.624;11.698;2023-02-17T11:38:11;12.40;67.60
66928;DHT22;59882;45.624;11.698;2023-02-17T11:40:37;12.50;66.00
66928;DHT22;59882;45.624;11.698;2023-02-17T11:43:57;12.60;66.50
66928;DHT22;59882;45.624;11.698;2023-02-17T11:46:57;12.70;65.90
66928;DHT22;59882;45.624;11.698;2023-02-17T11:55:28;12.90;65.70
66928;DHT22;59882;45.624;11.698;2023-02-17T12:01:01;13.30;64.10
66928;DHT22;59882;45.624;11.698;2023-02-17T12:03:57;13.40;63.30
66928;DHT22;59882;45.624;11.698;2023-02-17T12:06:43;13.40;63.20
66928;DHT22;59882;45.624;11.698;2023-02-17T12:09:54;13.60;63.50
66928;DHT22;59882;45.624;11.698;2023-02-17T12:15:02;13.90;60.10
66928;DHT22;59882;45.624;11.698;2023-02-17T12:17:45;13.90;59.70
66928;DHT22;59882;45.624;11.698;2023-02-17T12:23:17;14.10;59.30
66928;DHT22;59882;45.624;11.698;2023-02-17T12:34:11;14.70;59.60
66928;DHT22;59882;45.624;11.698;2023-02-17T12:36:40;15.20;58.90
66928;DHT22;59882;45.624;11.698;2023-02-17T12:39:14;16.30;56.50
66928;DHT22;59882;45.624;11.698;2023-02-17T12:41:52;17.50;52.80
66928;DHT22;59882;45.624;11.698;2023-02-17T12:44:23;18.60;52.50
66928;DHT22;59882;45.624;11.698;2023-02-17T12:46:54;19.70;49.70
66928;DHT22;59882;45.624;11.698;2023-02-17T12:52:18;20.80;45.80
66928;DHT22;59882;45.624;11.698;2023-02-17T12:57:54;22.00;43.10
66928;DHT22;59882;45.624;11.698;2023-02-17T13:00:24;22.20;41.50
66928;DHT22;59882;45.624;11.698;2023-02-17T13:02:56;22.60;41.20
66928;DHT22;59882;45.624;11.698;2023-02-17T13:05:47;23.00;40.70
66928;DHT22;59882;45.624;11.698;2023-02-17T13:10:40;23.70;39.30
66928;DHT22;59882;45.624;11.698;2023-02-17T13:13:25;23.90;38.80
66928;DHT22;59882;45.624;11.698;2023-02-17T13:16:21;24.10;36.40
66928;DHT22;59882;45.624;11.698;2023-02-17T13:18:49;24.20;37.80
66928;DHT22;59882;45.624;11.698;2023-02-17T13:23:45;24.40;36.00
66928;DHT22;59882;45.624;11.698;2023-02-17T13:28:49;24.60;35.40
66928;DHT22;59882;45.624;11.698;2023-02-17T13:31:21;24.40;36.10
66928;DHT22;59882;45.624;11.698;2023-02-17T13:33:56;24.40;35.20
66928;DHT22;59882;45.624;11.698;2023-02-17T13:36:34;24.30;35.70
66928;DHT22;59882;45.624;11.698;2023-02-17T13:39:28;24.20;35.20
66928;DHT22;59882;45.624;11.698;2023-02-17T13:41:56;24.00;35.00
66928;DHT22;59882;45.624;11.698;2023-02-17T13:44:42;23.90;35.30
66928;DHT22;59882;45.624;11.698;2023-02-17T13:49:39;23.30;36.60
66928;DHT22;59882;45.624;11.698;2023-02-17T13:52:21;23.00;37.00
66928;DHT22;59882;45.624;11.698;2023-02-17T13:54:55;22.60;36.60
66928;DHT22;59882;45.624;11.698;2023-02-17T13:57:27;22.20;38.20
66928;DHT22;59882;45.624;11.698;2023-02-17T14:00:05;21.90;38.10
66928;DHT22;59882;45.624;11.698;2023-02-17T14:02:30;21.50;38.70
66928;DHT22;59882;45.624;11.698;2023-02-17T14:04:56;21.40;38.90
66928;DHT22;59882;45.624;11.698;2023-02-17T14:07:22;21.40;38.90
66928;DHT22;59882;45.624;11.698;2023-02-17T14:09:53;21.30;39.40
66928;DHT22;59882;45.624;11.698;2023-02-17T14:12:22;21.20;40.10
66928;DHT22;59882;45.624;11.698;2023-02-17T14:14:48;21.10;39.50
66928;DHT22;59882;45.624;11.698;2023-02-17T14:17:29;21.00;40.20
66928;DHT22;59882;45.624;11.698;2023-02-17T14:19:56;20.90;40.10
66928;DHT22;59882;45.624;11.698;2023-02-17T14:22:28;20.60;40.50
66928;DHT22;59882;45.624;11.698;2023-02-17T14:27:23;20.10;41.50
66928;DHT22;59882;45.624;11.698;2023-02-17T14:29:49;20.00;41.50
66928;DHT22;59882;45.624;11.698;2023-02-17T14:32:33;19.90;41.60
66928;DHT22;59882;45.624;11.698;2023-02-17T14:37:38;19.30;42.80
66928;DHT22;59882;45.624;11.698;2023-02-17T14:40:12;18.90;43.30
66928;DHT22;59882;45.624;11.698;2023-02-17T14:42:38;18.50;44.50
66928;DHT22;59882;45.624;11.698;2023-02-17T14:45:04;18.20;44.50
66928;DHT22;59882;45.624;11.698;2023-02-17T14:47:30;17.90;44.80
66928;DHT22;59882;45.624;11.698;2023-02-17T14:49:55;17.60;45.70
66928;DHT22;59882;45.624;11.698;2023-02-17T14:52:23;17.40;46.80
66928;DHT22;59882;45.624;11.698;2023-02-17T14:54:49;17.10;47.70
66928;DHT22;59882;45.624;11.698;2023-02-17T14:57:15;16.90;47.30
66928;DHT22;59882;45.624;11.698;2023-02-17T14:59:42;16.70;48.20
66928;DHT22;59882;45.624;11.698;2023-02-17T15:02:18;16.50;48.20
66928;DHT22;59882;45.624;11.698;2023-02-17T15:04:44;16.30;48.60
66928;DHT22;59882;45.624;11.698;2023-02-17T15:07:16;16.10;49.00
66928;DHT22;59882;45.624;11.698;2023-02-17T15:09:46;15.90;49.50
66928;DHT22;59882;45.624;11.698;2023-02-17T15:12:20;15.80;50.30
66928;DHT22;59882;45.624;11.698;2023-02-17T15:14:46;15.60;50.30
66928;DHT22;59882;45.624;11.698;2023-02-17T15:17:13;15.50;50.30
66928;DHT22;59882;45.624;11.698;2023-02-17T15:19:39;15.40;50.70
66928;DHT22;59882;45.624;11.698;2023-02-17T15:22:05;15.40;50.90
66928;DHT22;59882;45.624;11.698;2023-02-17T15:24:33;15.30;51.00
66928;DHT22;59882;45.624;11.698;2023-02-17T15:27:00;15.20;51.40
66928;DHT22;59882;45.624;11.698;2023-02-17T15:29:26;15.00;51.90
66928;DHT22;59882;45.624;11.698;2023-02-17T15:31:54;15.00;52.30
66928;DHT22;59882;45.624;11.698;2023-02-17T15:34:22;14.90;52.30
66928;DHT22;59882;45.624;11.698;2023-02-17T15:36:48;14.80;52.60
66928;DHT22;59882;45.624;11.698;2023-02-17T15:39:17;14.60;53.20
66928;DHT22;59882;45.624;11.698;2023-02-17T15:41:45;14.50;53.30
66928;DHT22;59882;45.624;11.698;2023-02-17T15:44:22;14.40;53.70
66928;DHT22;59882;45.624;11.698;2023-02-17T15:46:50;14.30;54.90
66928;DHT22;59882;45.624;11.698;2023-02-17T15:49:16;14.20;54.80
66928;DHT22;59882;45.624;11.698;2023-02-17T15:51:41;14.10;54.50
66928;DHT22;59882;45.624;11.698;2023-02-17T15:54:07;14.00;56.00
66928;DHT22;59882;45.624;11.698;2023-02-17T15:56:51;13.90;56.80
66928;DHT22;59882;45.624;11.698;2023-02-17T15:59:21;13.80;57.40
66928;DHT22;59882;45.624;11.698;2023-02-17T16:01:47;13.70;58.00
66928;DHT22;59882;45.624;11.698;2023-02-17T16:04:15;13.60;58.10
66928;DHT22;59882;45.624;11.698;2023-02-17T16:06:41;13.50;58.50
66928;DHT22;59882;45.624;11.698;2023-02-17T16:09:08;13.40;58.90
66928;DHT22;59882;45.624;11.698;2023-02-17T16:11:44;13.30;59.40
66928;DHT22;59882;45.624;11.698;2023-02-17T16:14:20;13.10;59.70
66928;DHT22;59882;45.624;11.698;2023-02-17T16:16:47;13.00;58.60
66928;DHT22;59882;45.624;11.698;2023-02-17T16:19:12;12.90;59.20
66928;DHT22;59882;45.624;11.698;2023-02-17T16:21:38;12.90;60.00
66928;DHT22;59882;45.624;11.698;2023-02-17T16:24:04;12.80;60.70
66928;DHT22;59882;45.624;11.698;2023-02-17T16:26:34;12.70;60.50
66928;DHT22;59882;45.624;11.698;2023-02-17T16:29:02;12.70;60.60
66928;DHT22;59882;45.624;11.698;2023-02-17T16:31:28;12.60;61.70
66928;DHT22;59882;45.624;11.698;2023-02-17T16:33:56;12.50;61.00
66928;DHT22;59882;45.624;11.698;2023-02-17T16:36:25;12.50;61.30
66928;DHT22;59882;45.624;11.698;2023-02-17T16:38:50;12.40;62.30
66928;DHT22;59882;45.624;11.698;2023-02-17T16:41:19;12.40;62.60
66928;DHT22;59882;45.624;11.698;2023-02-17T16:43:44;12.30;62.50
66928;DHT22;59882;45.624;11.698;2023-02-17T16:46:30;12.20;62.50
66928;DHT22;59882;45.624;11.698;2023-02-17T16:48:58;12.10;62.70
66928;DHT22;59882;45.624;11.698;2023-02-17T16:51:24;12.10;63.40
66928;DHT22;59882;45.624;11.698;2023-02-17T16:53:49;12.10;62.70
66928;DHT22;59882;45.624;11.698;2023-02-17T16:56:22;12.00;62.70
66928;DHT22;59882;45.624;11.698;2023-02-17T16:58:50;12.00;64.30
66928;DHT22;59882;45.624;11.698;2023-02-17T17:01:16;11.90;64.10
66928;DHT22;59882;45.624;11.698;2023-02-17T17:03:42;11.90;64.00
66928;DHT22;59882;45.624;11.698;2023-02-17T17:06:28;11.90;63.70
66928;DHT22;59882;45.624;11.698;2023-02-17T17:08:54;11.80;64.80